LIBQ  Monte Scuro Airport

Add Bookmark

Italy

Status
Operational
Latitude Longitude
39° 19' 12" N 16° 22' 47" E
39.320000 16.380000
Local (DST + 2) UTC (GMT + 1)
Nov 27, 2014 01:48 Nov 27, 2014 12:48
Sunrise-Sunset Local UTC
Begin Civil Twilight 06:20 05:20
Sunrise 06:50 05:50
Sunset 04:34 15:34
End Civil Twilight 05:03 16:03

Current Weather

METAR Observed IFR
LIBQ 271055Z 25006KT 9999 BKN005 08/04 Q1016 Thu, Nov 27, 2014 @ 10:55 UTC
(1 Hour, 53 Minutes ago)
Instrument Flight Rules
Wind Visibility Clouds Conditions
250° at 6 knots (11 kph) 10 km or more
  • Broken at 500' AGL
  • No significant weather
Temperatures Readings Precipitation
Current Temp 8°C (46°F)
Dewpoint 4°C (39°F)
Humidity 76%
Altimeter 30"Hg
Sea Level Pressure 1016mb
Field Elevation 5643.04'
None Recorded

Additional weather within a 92.6km radius of LIBQ

Map ICAO Location
LICA 47.6km S (195°)
LIBC 70.2km E (121°)

24 Hour Weather History

Loading
-

24 Hour Weather Graphs

Loading
-

CheckWX.com is intended as a tool to help pilots better visualize weather data. It is not intended as a substitute for an official weather briefing obtained from a Flight Service Station. CheckWX.com does not meet the FAA requirements for an official pre-flight weather briefing. Therefore, it's important that pilots still call and obtain an official FSS pre-flight weather briefing.